Time;durP1;ratioP1;P1;durP2;ratioP2;P2;SDS_P1;SDS_P2;PMS_P1;PMS_P2;Temp;Humidity;BMP_temperature;BMP_pressure;BME280_temperature;BME280_humidity;BME280_pressure;Samples;Min_cycle;Max_cycle;Signal;HPM_P1;HPM_P2
2023/03/23 00:00:43;;;;;;;17.27;10.05;;;;;;;;;;4797814;29;20408;-82
2023/03/23 00:03:31;;;;;;;15.00;9.43;;;;;;;;;;4828926;29;20038;-82
2023/03/23 00:06:18;;;;;;;19.70;9.38;;;;;;;;;;4812336;29;20050;-81
2023/03/23 00:09:03;;;;;;;21.52;8.75;;;;;;;;;;4812743;29;20107;-81
2023/03/23 00:11:50;;;;;;;21.38;10.30;;;;;;;;;;4829201;29;20042;-81
2023/03/23 00:14:42;;;;;;;53.72;23.38;;;;;;;;;;4828654;29;20058;-81
2023/03/23 00:17:28;;;;;;;39.08;17.55;;;;;;;;;;4828887;29;20507;-81
2023/03/23 00:20:13;;;;;;;37.30;15.88;;;;;;;;;;4812178;29;20050;-82
2023/03/23 00:22:59;;;;;;;27.83;13.93;;;;;;;;;;4829013;29;20046;-81
2023/03/23 00:25:46;;;;;;;27.63;13.88;;;;;;;;;;4804428;29;20063;-81
2023/03/23 00:28:32;;;;;;;25.08;13.18;;;;;;;;;;4812286;29;20050;-82
2023/03/23 00:31:19;;;;;;;33.67;14.88;;;;;;;;;;4811845;29;20058;-81
2023/03/23 00:34:05;;;;;;;27.42;13.68;;;;;;;;;;4811969;29;20035;-81
2023/03/23 00:36:56;;;;;;;51.55;19.85;;;;;;;;;;4811891;29;20042;-81
2023/03/23 00:39:44;;;;;;;42.80;19.35;;;;;;;;;;4804190;29;20051;-82
2023/03/23 00:42:29;;;;;;;40.03;18.27;;;;;;;;;;4803810;29;20489;-81
2023/03/23 00:45:14;;;;;;;45.22;19.10;;;;;;;;;;4804005;29;20496;-82
2023/03/23 00:48:01;;;;;;;50.30;20.88;;;;;;;;;;4812247;29;20410;-81
2023/03/23 00:50:51;;;;;;;38.90;18.50;;;;;;;;;;4814391;29;20046;-82
2023/03/23 00:53:38;;;;;;;37.83;16.42;;;;;;;;;;4814825;29;20050;-82
2023/03/23 00:56:23;;;;;;;27.77;14.25;;;;;;;;;;4814733;29;20404;-82
2023/03/23 00:59:09;;;;;;;26.23;13.85;;;;;;;;;;4807544;29;20062;-82
2023/03/23 01:01:55;;;;;;;26.13;13.15;;;;;;;;;;4814629;29;20437;-82
2023/03/23 01:04:44;;;;;;;23.15;12.40;;;;;;;;;;4811899;29;21746;-80
2023/03/23 01:07:30;;;;;;;23.42;12.25;;;;;;;;;;4824373;29;20436;-81
2023/03/23 01:10:26;;;;;;;18.67;11.00;;;;;;;;;;4826833;29;20054;-81
2023/03/23 01:13:12;;;;;;;31.77;17.98;;;;;;;;;;4814946;29;20051;-81
2023/03/23 01:15:57;;;;;;;33.47;15.90;;;;;;;;;;4793590;29;20050;-82
2023/03/23 01:18:42;;;;;;;33.85;15.98;;;;;;;;;;4808222;29;20059;-82
2023/03/23 01:21:31;;;;;;;33.33;15.35;;;;;;;;;;4815635;29;20401;-79
2023/03/23 01:24:17;;;;;;;35.13;16.27;;;;;;;;;;4811119;29;20041;-80
2023/03/23 01:27:06;;;;;;;35.03;17.75;;;;;;;;;;4821268;29;20054;-80
2023/03/23 01:29:51;;;;;;;32.35;16.33;;;;;;;;;;4817004;29;20050;-80
2023/03/23 01:32:36;;;;;;;25.67;12.90;;;;;;;;;;4818203;29;20043;-80
2023/03/23 01:35:22;;;;;;;28.98;15.60;;;;;;;;;;4817911;29;20043;-81
2023/03/23 01:38:07;;;;;;;33.58;16.60;;;;;;;;;;4814840;29;20066;-80
2023/03/23 01:40:53;;;;;;;32.35;15.88;;;;;;;;;;4819591;29;20489;-80
2023/03/23 01:44:05;;;;;;;30.77;14.68;;;;;;;;;;4820878;29;20404;-80
2023/03/23 01:46:57;;;;;;;20.42;10.93;;;;;;;;;;4802271;29;20062;-79
2023/03/23 01:49:46;;;;;;;17.25;10.25;;;;;;;;;;4804413;29;20046;-80
2023/03/23 01:52:36;;;;;;;20.90;10.65;;;;;;;;;;4800132;29;20046;-80
2023/03/23 01:55:24;;;;;;;19.27;9.60;;;;;;;;;;4806395;29;20043;-80
2023/03/23 01:58:11;;;;;;;20.75;9.75;;;;;;;;;;4814156;29;20050;-80
2023/03/23 02:01:00;;;;;;;15.25;8.80;;;;;;;;;;4805753;29;20055;-80
2023/03/23 02:03:47;;;;;;;15.98;8.57;;;;;;;;;;4806508;29;20046;-80
2023/03/23 02:06:33;;;;;;;13.52;8.23;;;;;;;;;;4806457;29;20062;-79
2023/03/23 02:09:36;;;;;;;17.67;10.25;;;;;;;;;;4800093;29;20046;-80
2023/03/23 02:12:21;;;;;;;27.92;16.10;;;;;;;;;;4804951;29;20058;-81
2023/03/23 02:15:09;;;;;;;39.88;19.65;;;;;;;;;;4804236;29;20054;-81
2023/03/23 02:18:38;;;;;;;45.08;22.80;;;;;;;;;;4817230;29;20054;-80
2023/03/23 02:21:50;;;;;;;35.85;20.20;;;;;;;;;;4804239;29;20054;-81
2023/03/23 02:25:23;;;;;;;32.38;16.50;;;;;;;;;;4803974;29;20052;-81
2023/03/23 02:28:22;;;;;;;29.02;16.50;;;;;;;;;;4754823;30;20052;-80
2023/03/23 02:31:12;;;;;;;29.85;16.05;;;;;;;;;;4755232;30;20481;-80
2023/03/23 02:34:05;;;;;;;30.98;16.20;;;;;;;;;;4822752;29;20046;-80
2023/03/23 02:36:52;;;;;;;25.85;15.32;;;;;;;;;;4803732;29;20054;-81
2023/03/23 02:39:49;;;;;;;29.90;16.58;;;;;;;;;;4811486;29;20050;-82
2023/03/23 02:42:37;;;;;;;32.50;18.40;;;;;;;;;;4797247;29;20050;-81
2023/03/23 02:45:25;;;;;;;32.33;16.58;;;;;;;;;;4803285;29;20047;-81
2023/03/23 02:48:15;;;;;;;33.80;19.27;;;;;;;;;;4797711;29;20059;-81
2023/03/23 02:51:02;;;;;;;33.03;16.33;;;;;;;;;;4803236;29;20428;-81
2023/03/23 02:53:50;;;;;;;31.88;14.35;;;;;;;;;;4811193;29;20050;-81
2023/03/23 02:56:36;;;;;;;49.38;18.55;;;;;;;;;;4811095;29;20051;-81
2023/03/23 02:59:27;;;;;;;44.28;17.98;;;;;;;;;;4802955;29;20059;-81
2023/03/23 03:02:18;;;;;;;48.60;18.50;;;;;;;;;;4803850;29;20055;-81
2023/03/23 03:05:21;;;;;;;46.83;17.90;;;;;;;;;;4802865;29;20058;-81
2023/03/23 03:08:39;;;;;;;27.85;13.93;;;;;;;;;;4803539;29;20062;-79
2023/03/23 03:11:27;;;;;;;25.50;12.52;;;;;;;;;;4802911;29;20059;-81
2023/03/23 03:14:21;;;;;;;22.58;11.30;;;;;;;;;;4802197;29;20042;-81
2023/03/23 03:17:13;;;;;;;22.02;11.00;;;;;;;;;;4803249;29;20038;-80
2023/03/23 03:20:09;;;;;;;22.02;11.40;;;;;;;;;;4810579;29;20058;-81
2023/03/23 03:22:57;;;;;;;26.02;13.57;;;;;;;;;;4803717;29;20051;-81
2023/03/23 03:25:47;;;;;;;21.77;12.90;;;;;;;;;;4802832;29;20050;-80
2023/03/23 03:28:36;;;;;;;22.80;12.82;;;;;;;;;;4802630;29;20500;-80
2023/03/23 03:31:30;;;;;;;36.85;16.63;;;;;;;;;;4802438;29;20059;-81
2023/03/23 03:34:17;;;;;;;40.90;17.58;;;;;;;;;;4803017;29;20050;-80
2023/03/23 03:37:05;;;;;;;36.55;17.52;;;;;;;;;;4804189;29;20042;-81
2023/03/23 03:39:51;;;;;;;36.83;14.95;;;;;;;;;;4802798;29;20050;-82
2023/03/23 03:42:41;;;;;;;32.72;11.35;;;;;;;;;;4803054;29;20047;-81
2023/03/23 03:45:27;;;;;;;23.27;9.73;;;;;;;;;;4802908;29;20054;-81
2023/03/23 03:48:13;;;;;;;20.75;9.95;;;;;;;;;;4796720;29;20500;-82
2023/03/23 03:51:00;;;;;;;17.35;10.25;;;;;;;;;;4810805;29;20047;-81
2023/03/23 03:53:47;;;;;;;32.17;16.38;;;;;;;;;;4802644;29;20050;-81
2023/03/23 03:56:35;;;;;;;22.55;13.98;;;;;;;;;;4802607;29;20046;-80
2023/03/23 03:59:40;;;;;;;24.52;13.75;;;;;;;;;;4816331;29;20058;-81
2023/03/23 04:02:53;;;;;;;24.92;13.43;;;;;;;;;;4798652;29;20420;-82
2023/03/23 04:05:52;;;;;;;22.95;12.43;;;;;;;;;;4791328;29;20058;-80
2023/03/23 04:08:40;;;;;;;22.85;13.05;;;;;;;;;;4810379;29;20050;-80
2023/03/23 04:11:26;;;;;;;29.63;15.20;;;;;;;;;;4803092;29;20054;-81
2023/03/23 04:14:15;;;;;;;31.88;17.45;;;;;;;;;;4802131;29;20051;-80
2023/03/23 04:17:03;;;;;;;32.40;18.60;;;;;;;;;;4802592;29;20051;-80
2023/03/23 04:19:48;;;;;;;39.28;21.45;;;;;;;;;;4802072;29;20416;-79
2023/03/23 04:22:34;;;;;;;40.83;21.13;;;;;;;;;;4790089;29;20492;-80
2023/03/23 04:25:21;;;;;;;54.00;27.15;;;;;;;;;;4804577;29;20046;-81
2023/03/23 04:28:09;;;;;;;74.22;35.53;;;;;;;;;;4799618;29;20051;-80
2023/03/23 04:31:01;;;;;;;61.88;30.48;;;;;;;;;;4808252;29;20424;-81
2023/03/23 04:33:47;;;;;;;41.08;24.35;;;;;;;;;;4808094;29;20050;-80
2023/03/23 04:36:33;;;;;;;36.58;21.13;;;;;;;;;;4807782;29;20701;-80
2023/03/23 04:39:24;;;;;;;35.63;20.70;;;;;;;;;;4802131;29;20054;-80
2023/03/23 04:42:13;;;;;;;41.30;19.15;;;;;;;;;;4807544;29;20063;-80
2023/03/23 04:45:37;;;;;;;27.17;15.93;;;;;;;;;;4776597;30;20051;-80
2023/03/23 04:48:27;;;;;;;29.25;17.38;;;;;;;;;;4800707;29;20051;-81
2023/03/23 04:51:21;;;;;;;34.03;19.05;;;;;;;;;;4826302;29;20421;-81
2023/03/23 04:54:10;;;;;;;36.75;20.13;;;;;;;;;;4807437;29;20046;-80
2023/03/23 04:56:59;;;;;;;40.33;22.13;;;;;;;;;;4807079;29;20492;-81
2023/03/23 04:59:45;;;;;;;42.72;25.10;;;;;;;;;;4819928;29;20050;-80
2023/03/23 05:02:39;;;;;;;48.00;25.05;;;;;;;;;;4807156;29;20050;-81
2023/03/23 05:05:25;;;;;;;70.30;35.70;;;;;;;;;;4806817;29;20046;-81
2023/03/23 05:08:12;;;;;;;121.47;49.75;;;;;;;;;;4806666;29;20059;-80
2023/03/23 05:11:00;;;;;;;84.35;41.67;;;;;;;;;;4806955;29;20484;-80
2023/03/23 05:13:50;;;;;;;65.80;36.28;;;;;;;;;;4807117;29;20058;-81
2023/03/23 05:16:39;;;;;;;63.85;32.03;;;;;;;;;;4807160;29;20424;-81
2023/03/23 05:19:27;;;;;;;44.92;26.50;;;;;;;;;;4806603;29;20062;-80
2023/03/23 05:22:14;;;;;;;37.70;21.55;;;;;;;;;;4806574;29;20051;-81
2023/03/23 05:25:08;;;;;;;48.08;24.38;;;;;;;;;;4806803;29;20050;-81
2023/03/23 05:27:55;;;;;;;42.65;17.67;;;;;;;;;;4806787;29;20046;-81
2023/03/23 05:31:01;;;;;;;31.40;15.60;;;;;;;;;;4806966;29;20043;-81
2023/03/23 05:33:50;;;;;;;34.30;16.10;;;;;;;;;;4806729;29;20063;-81
2023/03/23 05:36:45;;;;;;;29.65;15.77;;;;;;;;;;4805291;29;20052;-81
2023/03/23 05:39:34;;;;;;;28.48;16.20;;;;;;;;;;4806556;29;20054;-81
2023/03/23 05:42:40;;;;;;;33.75;16.73;;;;;;;;;;4814696;29;20043;-81
2023/03/23 05:45:35;;;;;;;38.13;18.95;;;;;;;;;;4806269;29;20042;-80
2023/03/23 05:48:22;;;;;;;33.42;17.75;;;;;;;;;;4807132;29;20847;-81
2023/03/23 05:51:08;;;;;;;47.97;20.38;;;;;;;;;;4806225;29;20043;-81
2023/03/23 05:53:57;;;;;;;44.00;19.25;;;;;;;;;;4799365;29;20043;-81
2023/03/23 05:56:43;;;;;;;38.47;20.08;;;;;;;;;;4806050;29;20075;-82
2023/03/23 05:59:29;;;;;;;36.17;20.60;;;;;;;;;;4813888;29;20050;-81
2023/03/23 06:02:17;;;;;;;42.63;21.30;;;;;;;;;;4806509;29;20050;-82
2023/03/23 06:05:03;;;;;;;42.83;22.52;;;;;;;;;;4818746;29;20047;-81
2023/03/23 06:07:52;;;;;;;40.63;23.02;;;;;;;;;;4805974;29;20046;-80
2023/03/23 06:10:38;;;;;;;44.53;23.13;;;;;;;;;;4806370;29;20050;-81
2023/03/23 06:13:23;;;;;;;35.42;19.88;;;;;;;;;;4804516;29;20050;-81
2023/03/23 06:16:14;;;;;;;46.35;21.23;;;;;;;;;;4823403;29;20054;-81
2023/03/23 06:19:11;;;;;;;47.15;20.80;;;;;;;;;;4806402;29;20806;-81
2023/03/23 06:22:05;;;;;;;36.38;20.00;;;;;;;;;;4815702;29;20054;-82
2023/03/23 06:25:16;;;;;;;42.88;22.85;;;;;;;;;;4823754;29;20058;-80
2023/03/23 06:28:03;;;;;;;31.63;18.23;;;;;;;;;;4805187;29;20419;-82
2023/03/23 06:30:50;;;;;;;35.60;18.92;;;;;;;;;;4811096;29;20058;-80
2023/03/23 06:33:37;;;;;;;28.65;16.02;;;;;;;;;;4808834;29;20496;-82
2023/03/23 06:36:38;;;;;;;30.23;15.88;;;;;;;;;;4807898;29;20055;-81
2023/03/23 06:39:46;;;;;;;23.95;15.68;;;;;;;;;;4810551;29;20047;-83
2023/03/23 06:42:39;;;;;;;23.85;15.52;;;;;;;;;;4803350;29;20054;-82
2023/03/23 06:45:53;;;;;;;34.10;19.60;;;;;;;;;;4806748;29;20042;-82
2023/03/23 06:49:08;;;;;;;29.70;19.00;;;;;;;;;;4780684;29;20039;-81
2023/03/23 06:52:03;;;;;;;40.17;19.63;;;;;;;;;;4804036;29;20039;-82
2023/03/23 06:54:50;;;;;;;33.88;20.17;;;;;;;;;;4804231;29;20051;-82
2023/03/23 06:57:36;;;;;;;36.63;20.20;;;;;;;;;;4804910;29;20046;-82
2023/03/23 07:00:21;;;;;;;43.95;21.55;;;;;;;;;;4804610;29;20043;-81
2023/03/23 07:03:08;;;;;;;37.63;18.92;;;;;;;;;;4823825;29;20397;-81
2023/03/23 07:05:56;;;;;;;35.83;18.90;;;;;;;;;;4804621;29;20054;-82
2023/03/23 07:08:45;;;;;;;33.47;17.40;;;;;;;;;;4804238;29;20058;-82
2023/03/23 07:11:35;;;;;;;35.53;18.45;;;;;;;;;;4804662;29;20480;-83
2023/03/23 07:14:26;;;;;;;40.35;21.20;;;;;;;;;;4802126;29;20481;-81
2023/03/23 07:17:11;;;;;;;37.60;21.35;;;;;;;;;;4802273;29;20050;-80
2023/03/23 07:20:04;;;;;;;32.40;18.30;;;;;;;;;;4801114;29;20050;-81
2023/03/23 07:22:51;;;;;;;40.08;18.63;;;;;;;;;;4820862;29;20568;-80
2023/03/23 07:25:52;;;;;;;35.65;19.88;;;;;;;;;;4792093;29;20054;-80
2023/03/23 07:28:42;;;;;;;38.17;19.98;;;;;;;;;;4803195;29;20050;-78
2023/03/23 07:31:47;;;;;;;23.05;14.02;;;;;;;;;;4818076;29;20401;-79
2023/03/23 07:34:34;;;;;;;26.58;14.57;;;;;;;;;;4804604;29;20046;-78
2023/03/23 07:37:28;;;;;;;25.85;15.00;;;;;;;;;;4811762;29;20042;-79
2023/03/23 07:40:15;;;;;;;30.27;15.13;;;;;;;;;;4805209;29;20407;-81
2023/03/23 07:43:05;;;;;;;27.30;15.68;;;;;;;;;;4804892;29;20051;-80
2023/03/23 07:46:25;;;;;;;28.23;15.48;;;;;;;;;;4763105;30;20060;-81
2023/03/23 07:49:26;;;;;;;28.27;13.85;;;;;;;;;;4803114;29;20054;-83
2023/03/23 07:52:23;;;;;;;18.75;11.95;;;;;;;;;;4815196;29;20054;-81
2023/03/23 07:55:17;;;;;;;21.23;9.32;;;;;;;;;;4823878;29;20488;-80
2023/03/23 07:58:25;;;;;;;15.98;10.23;;;;;;;;;;4816712;29;20433;-79
2023/03/23 08:01:13;;;;;;;20.42;11.93;;;;;;;;;;4807984;29;20058;-81
2023/03/23 08:04:02;;;;;;;24.33;11.00;;;;;;;;;;4801867;29;20046;-81
2023/03/23 08:06:59;;;;;;;20.58;8.70;;;;;;;;;;4800843;29;20047;-79
2023/03/23 08:10:17;;;;;;;14.90;8.32;;;;;;;;;;4786821;29;20477;-80
2023/03/23 08:13:11;;;;;;;;;;;;;;;;;;4810054;29;20046;-83
2023/03/23 08:16:11;;;;;;;13.27;9.18;;;;;;;;;;4801993;29;19921;-80
2023/03/23 08:19:14;;;;;;;15.65;9.63;;;;;;;;;;4808660;29;20484;-81
2023/03/23 08:22:17;;;;;;;14.50;9.32;;;;;;;;;;4802242;29;20051;-77
2023/03/23 08:25:25;;;;;;;17.23;9.35;;;;;;;;;;4815773;29;20401;-78
2023/03/23 08:28:29;;;;;;;18.20;9.50;;;;;;;;;;4809097;29;20409;-79
2023/03/23 08:31:23;;;;;;;16.35;9.85;;;;;;;;;;4809253;29;20043;-78
2023/03/23 08:34:43;;;;;;;13.98;9.38;;;;;;;;;;4771214;30;20549;-77
2023/03/23 08:37:51;;;;;;;13.05;9.38;;;;;;;;;;4809311;29;20513;-79
2023/03/23 08:41:04;;;;;;;11.07;8.77;;;;;;;;;;4809193;29;20050;-79
2023/03/23 08:44:04;;;;;;;12.32;8.25;;;;;;;;;;4802046;29;20051;-80
2023/03/23 08:46:49;;;;;;;13.35;8.73;;;;;;;;;;4809084;29;20055;-78
2023/03/23 08:49:56;;;;;;;13.98;8.48;;;;;;;;;;4801902;29;20051;-79
2023/03/23 08:53:01;;;;;;;12.45;7.60;;;;;;;;;;4809080;29;20504;-81
2023/03/23 08:56:12;;;;;;;11.50;7.80;;;;;;;;;;4814657;29;20047;-79
2023/03/23 08:59:23;;;;;;;12.40;8.93;;;;;;;;;;4815064;29;20058;-79
2023/03/23 09:02:23;;;;;;;11.77;7.88;;;;;;;;;;4796799;29;20409;-80
2023/03/23 09:05:24;;;;;;;11.45;7.25;;;;;;;;;;4809166;29;20397;-80
2023/03/23 09:08:22;;;;;;;16.92;10.60;;;;;;;;;;4808947;29;20055;-80
2023/03/23 09:11:09;;;;;;;13.10;9.00;;;;;;;;;;4809218;29;20050;-79
2023/03/23 09:13:54;;;;;;;8.90;5.97;;;;;;;;;;4808793;29;20038;-81
2023/03/23 09:16:40;;;;;;;13.75;8.30;;;;;;;;;;4808415;29;20050;-80
2023/03/23 09:19:25;;;;;;;11.82;7.75;;;;;;;;;;4801377;29;20417;-79
2023/03/23 09:22:09;;;;;;;;;;;;;;;;;;4809145;29;20051;-80
2023/03/23 09:24:54;;;;;;;10.07;7.28;;;;;;;;;;4808705;29;19917;-80
2023/03/23 09:27:40;;;;;;;19.45;7.53;;;;;;;;;;4808476;29;20062;-79
2023/03/23 09:30:32;;;;;;;18.58;10.68;;;;;;;;;;4808381;29;20043;-78
2023/03/23 09:33:17;;;;;;;15.55;8.50;;;;;;;;;;4808604;29;20055;-80
2023/03/23 09:36:04;;;;;;;15.38;9.45;;;;;;;;;;4808209;29;20232;-80
2023/03/23 09:38:49;;;;;;;12.52;5.32;;;;;;;;;;4808452;29;20047;-78
2023/03/23 09:41:44;;;;;;;7.63;4.95;;;;;;;;;;4788582;29;20404;-79
2023/03/23 09:44:55;;;;;;;18.88;7.05;;;;;;;;;;4800612;29;20059;-78
2023/03/23 09:47:48;;;;;;;8.23;4.38;;;;;;;;;;4795957;29;20055;-81
2023/03/23 09:50:37;;;;;;;30.67;14.73;;;;;;;;;;4807396;29;20440;-79
2023/03/23 09:53:28;;;;;;;11.25;7.10;;;;;;;;;;4808348;29;20047;-78
2023/03/23 09:56:15;;;;;;;10.48;5.05;;;;;;;;;;4808054;29;20054;-78
2023/03/23 09:59:12;;;;;;;6.75;5.05;;;;;;;;;;4807807;29;20051;-79
2023/03/23 10:02:11;;;;;;;11.88;5.03;;;;;;;;;;4807999;29;20409;-79
2023/03/23 10:05:23;;;;;;;9.52;4.70;;;;;;;;;;4794144;29;20054;-79
2023/03/23 10:08:14;;;;;;;6.50;4.88;;;;;;;;;;4808181;29;20066;-79
2023/03/23 10:11:18;;;;;;;6.75;4.50;;;;;;;;;;4807985;29;20481;-80
2023/03/23 10:14:15;;;;;;;10.18;3.35;;;;;;;;;;4807896;29;20070;-79
2023/03/23 10:17:00;;;;;;;17.50;4.80;;;;;;;;;;4800035;29;20488;-79
2023/03/23 10:20:00;;;;;;;5.40;3.83;;;;;;;;;;4807211;29;20051;-81
2023/03/23 10:23:10;;;;;;;3.95;3.05;;;;;;;;;;4807196;29;20051;-78
2023/03/23 10:26:15;;;;;;;5.38;2.97;;;;;;;;;;4807365;29;20485;-77
2023/03/23 10:29:06;;;;;;;10.23;3.95;;;;;;;;;;4807452;29;20413;-76
2023/03/23 10:31:54;;;;;;;7.38;3.70;;;;;;;;;;4787511;29;20051;-81
2023/03/23 10:34:49;;;;;;;4.22;3.45;;;;;;;;;;4807462;29;20046;-79
2023/03/23 10:37:38;;;;;;;6.70;3.25;;;;;;;;;;4807197;29;20039;-82
2023/03/23 10:40:29;;;;;;;6.50;3.38;;;;;;;;;;4807234;29;20400;-82
2023/03/23 10:43:15;;;;;;;5.25;3.60;;;;;;;;;;4807107;29;20047;-80
2023/03/23 10:46:04;;;;;;;4.97;3.30;;;;;;;;;;4807015;29;20055;-81
2023/03/23 10:48:52;;;;;;;5.65;3.15;;;;;;;;;;4807174;29;20054;-79
2023/03/23 10:51:44;;;;;;;7.25;3.25;;;;;;;;;;4807222;29;20055;-77
2023/03/23 10:54:43;;;;;;;6.43;3.08;;;;;;;;;;4807321;29;20046;-79
2023/03/23 10:57:30;;;;;;;5.95;2.90;;;;;;;;;;4806893;29;20405;-78
2023/03/23 11:00:26;;;;;;;4.15;2.90;;;;;;;;;;4806750;29;20055;-81
2023/03/23 11:03:15;;;;;;;5.40;3.30;;;;;;;;;;4806793;29;20051;-81
2023/03/23 11:06:03;;;;;;;3.95;3.13;;;;;;;;;;4807197;29;20039;-76
2023/03/23 11:08:55;;;;;;;5.97;4.05;;;;;;;;;;4806653;29;20500;-77
2023/03/23 11:11:45;;;;;;;6.47;3.47;;;;;;;;;;4806677;29;20397;-77
2023/03/23 11:14:38;;;;;;;4.60;3.45;;;;;;;;;;4806572;29;20054;-78
2023/03/23 11:17:26;;;;;;;4.90;3.25;;;;;;;;;;4806802;29;20054;-77
2023/03/23 11:20:12;;;;;;;4.97;3.13;;;;;;;;;;4806815;29;20059;-77
2023/03/23 11:22:58;;;;;;;4.60;3.30;;;;;;;;;;4806193;29;20055;-79
2023/03/23 11:26:15;;;;;;;5.03;3.67;;;;;;;;;;4806835;29;20055;-78
2023/03/23 11:29:17;;;;;;;9.13;5.53;;;;;;;;;;4806587;29;20058;-80
2023/03/23 11:32:12;;;;;;;3.92;3.00;;;;;;;;;;4806640;29;20408;-80
2023/03/23 11:35:04;;;;;;;6.03;3.03;;;;;;;;;;4792042;29;20495;-80
2023/03/23 11:37:56;;;;;;;4.72;3.08;;;;;;;;;;4806572;29;20653;-81
2023/03/23 11:40:49;;;;;;;5.75;3.33;;;;;;;;;;4806660;29;20058;-80
2023/03/23 11:43:34;;;;;;;7.32;3.28;;;;;;;;;;4806091;29;20444;-78
2023/03/23 11:46:29;;;;;;;7.65;3.95;;;;;;;;;;4806520;29;20059;-79
2023/03/23 11:49:41;;;;;;;6.45;3.03;;;;;;;;;;4805993;29;20055;-79
2023/03/23 11:52:46;;;;;;;4.32;3.00;;;;;;;;;;4806458;29;20046;-79
2023/03/23 11:55:59;;;;;;;3.65;2.70;;;;;;;;;;4787130;29;20051;-78
2023/03/23 11:58:45;;;;;;;3.50;2.80;;;;;;;;;;4806670;29;20046;-79
2023/03/23 12:01:46;;;;;;;6.70;3.05;;;;;;;;;;4806527;29;20059;-79
2023/03/23 12:04:53;;;;;;;4.70;2.90;;;;;;;;;;4806200;29;20051;-78
2023/03/23 12:08:21;;;;;;;6.15;3.00;;;;;;;;;;4806640;29;20054;-80
2023/03/23 12:11:26;;;;;;;8.68;3.10;;;;;;;;;;4806120;29;20043;-78
2023/03/23 12:14:20;;;;;;;;;;;;;;;;;;4799388;29;20054;-78
2023/03/23 12:17:14;;;;;;;6.28;3.10;;;;;;;;;;4806399;29;19921;-82
2023/03/23 12:20:24;;;;;;;7.55;3.13;;;;;;;;;;4806333;29;20055;-79
2023/03/23 12:23:41;;;;;;;5.68;3.65;;;;;;;;;;4806296;29;20046;-81
2023/03/23 12:26:35;;;;;;;5.93;3.45;;;;;;;;;;4797961;29;20405;-79
2023/03/23 12:29:20;;;;;;;4.57;3.08;;;;;;;;;;4806153;29;20481;-81
2023/03/23 12:32:30;;;;;;;7.65;3.22;;;;;;;;;;4806358;29;20404;-78
2023/03/23 12:35:37;;;;;;;7.18;3.40;;;;;;;;;;4792879;29;20042;-82
2023/03/23 12:38:46;;;;;;;6.38;3.55;;;;;;;;;;4792133;29;20047;-81
2023/03/23 12:41:59;;;;;;;7.32;3.65;;;;;;;;;;4806069;29;20054;-79
2023/03/23 12:44:52;;;;;;;3.83;2.85;;;;;;;;;;4806724;29;20489;-82
2023/03/23 12:47:50;;;;;;;3.25;2.65;;;;;;;;;;4827167;29;20054;-81
2023/03/23 12:50:46;;;;;;;5.00;2.60;;;;;;;;;;4819949;29;20050;-80
2023/03/23 12:53:45;;;;;;;3.65;2.80;;;;;;;;;;4813253;29;20054;-82
2023/03/23 12:56:55;;;;;;;2.85;2.35;;;;;;;;;;4826553;29;20058;-82
2023/03/23 12:59:49;;;;;;;4.68;3.00;;;;;;;;;;4815224;29;20046;-80
2023/03/23 13:02:47;;;;;;;4.63;2.70;;;;;;;;;;4821294;29;20050;-80
2023/03/23 13:05:40;;;;;;;7.20;3.70;;;;;;;;;;4826440;29;20046;-80
2023/03/23 13:08:37;;;;;;;6.60;3.70;;;;;;;;;;4820054;29;20050;-81
2023/03/23 13:11:29;;;;;;;3.83;2.58;;;;;;;;;;4823938;29;20043;-79
2023/03/23 13:14:29;;;;;;;4.82;2.63;;;;;;;;;;4808648;29;20050;-78
2023/03/23 13:17:26;;;;;;;3.70;2.58;;;;;;;;;;4801479;29;20050;-77
2023/03/23 13:20:34;;;;;;;3.78;2.65;;;;;;;;;;4813595;29;20059;-81
2023/03/23 13:23:38;;;;;;;3.20;2.35;;;;;;;;;;4808466;29;20047;-79
2023/03/23 13:26:24;;;;;;;3.47;2.60;;;;;;;;;;4818437;29;20050;-80
2023/03/23 13:29:24;;;;;;;7.15;2.60;;;;;;;;;;4813349;29;20508;-81
2023/03/23 13:32:19;;;;;;;4.22;2.85;;;;;;;;;;4827031;29;20400;-79
2023/03/23 13:35:12;;;;;;;5.15;2.50;;;;;;;;;;4818887;29;20058;-80
2023/03/23 13:37:58;;;;;;;4.72;2.67;;;;;;;;;;4818395;29;20496;-77
2023/03/23 13:40:44;;;;;;;6.78;4.05;;;;;;;;;;4816545;29;20054;-78
2023/03/23 13:43:33;;;;;;;6.22;3.20;;;;;;;;;;4826015;29;20046;-78
2023/03/23 13:46:18;;;;;;;4.47;3.28;;;;;;;;;;4823655;29;20623;-78
2023/03/23 13:49:17;;;;;;;7.35;3.15;;;;;;;;;;4826432;29;20058;-79
2023/03/23 13:52:37;;;;;;;5.53;3.08;;;;;;;;;;4820578;29;20043;-79
2023/03/23 13:55:35;;;;;;;4.40;2.90;;;;;;;;;;4810938;29;20522;-79
2023/03/23 13:58:26;;;;;;;4.70;2.67;;;;;;;;;;4824908;29;20042;-80
2023/03/23 14:01:16;;;;;;;3.47;2.58;;;;;;;;;;4823410;29;20054;-79
2023/03/23 14:04:06;;;;;;;4.35;2.88;;;;;;;;;;4811773;29;20054;-78
2023/03/23 14:06:52;;;;;;;4.28;3.17;;;;;;;;;;4819827;29;20048;-78
2023/03/23 14:09:44;;;;;;;4.28;2.97;;;;;;;;;;4816145;29;20054;-78
2023/03/23 14:12:29;;;;;;;3.92;3.00;;;;;;;;;;4825676;29;20046;-78
2023/03/23 14:15:15;;;;;;;5.15;3.10;;;;;;;;;;4825813;29;20050;-79
2023/03/23 14:18:03;;;;;;;4.40;3.33;;;;;;;;;;4824113;29;20050;-80
2023/03/23 14:20:49;;;;;;;5.50;2.70;;;;;;;;;;4826038;29;20050;-80
2023/03/23 14:23:34;;;;;;;3.45;3.00;;;;;;;;;;4825575;29;20058;-81
2023/03/23 14:26:21;;;;;;;5.97;4.00;;;;;;;;;;4825745;29;20054;-80
2023/03/23 14:29:07;;;;;;;6.07;3.20;;;;;;;;;;4825944;29;20058;-79
2023/03/23 14:31:55;;;;;;;4.80;3.53;;;;;;;;;;4823562;29;20051;-78
2023/03/23 14:34:42;;;;;;;7.82;3.05;;;;;;;;;;4824381;29;20404;-78
2023/03/23 14:37:28;;;;;;;5.22;3.08;;;;;;;;;;4823704;29;20050;-79
2023/03/23 14:40:16;;;;;;;3.80;3.10;;;;;;;;;;4818763;29;20051;-80
2023/03/23 14:43:02;;;;;;;6.75;3.50;;;;;;;;;;4831201;29;20050;-81
2023/03/23 14:45:54;;;;;;;8.40;4.07;;;;;;;;;;4835156;29;20491;-79
2023/03/23 14:48:40;;;;;;;7.88;4.22;;;;;;;;;;4833660;29;20066;-79
2023/03/23 14:51:25;;;;;;;6.53;3.60;;;;;;;;;;4801767;29;20046;-79
2023/03/23 14:54:11;;;;;;;4.50;3.17;;;;;;;;;;4811529;29;20429;-79
2023/03/23 14:57:09;;;;;;;4.13;3.17;;;;;;;;;;4821568;29;20051;-80
2023/03/23 14:59:55;;;;;;;5.15;3.10;;;;;;;;;;4812125;29;20062;-78
2023/03/23 15:02:47;;;;;;;7.32;3.60;;;;;;;;;;4825353;29;20416;-81
2023/03/23 15:05:36;;;;;;;6.32;3.70;;;;;;;;;;4817338;29;20062;-80
2023/03/23 15:08:31;;;;;;;7.93;3.30;;;;;;;;;;4825626;29;20058;-80
2023/03/23 15:11:19;;;;;;;8.63;3.80;;;;;;;;;;4825188;29;20054;-79
2023/03/23 15:14:20;;;;;;;8.15;3.70;;;;;;;;;;4816661;29;20058;-80
2023/03/23 15:17:05;;;;;;;6.28;3.90;;;;;;;;;;4825410;29;20042;-82
2023/03/23 15:19:53;;;;;;;8.35;4.55;;;;;;;;;;4809765;29;20042;-81
2023/03/23 15:22:46;;;;;;;7.45;4.70;;;;;;;;;;4808324;29;20050;-81
2023/03/23 15:25:33;;;;;;;8.77;5.30;;;;;;;;;;4819072;29;20058;-81
2023/03/23 15:28:21;;;;;;;16.13;4.50;;;;;;;;;;4807682;29;20055;-78
2023/03/23 15:31:06;;;;;;;7.15;4.22;;;;;;;;;;4825253;29;20038;-82
2023/03/23 15:33:56;;;;;;;8.65;4.47;;;;;;;;;;4824622;29;20046;-81
2023/03/23 15:36:43;;;;;;;9.38;5.07;;;;;;;;;;4824540;29;20054;-80
2023/03/23 15:39:29;;;;;;;10.80;6.13;;;;;;;;;;4823880;29;20047;-77
2023/03/23 15:42:32;;;;;;;14.15;5.88;;;;;;;;;;4816671;29;20424;-79
2023/03/23 15:45:27;;;;;;;12.07;5.22;;;;;;;;;;4825301;29;20046;-81
2023/03/23 15:48:12;;;;;;;13.07;6.72;;;;;;;;;;4824723;29;20063;-80
2023/03/23 15:50:58;;;;;;;9.50;6.55;;;;;;;;;;4825059;29;20050;-79
2023/03/23 15:53:44;;;;;;;11.52;6.85;;;;;;;;;;4825096;29;20047;-79
2023/03/23 15:56:31;;;;;;;12.43;7.90;;;;;;;;;;4824671;29;20054;-80
2023/03/23 15:59:16;;;;;;;10.48;4.65;;;;;;;;;;4824984;29;20046;-79
2023/03/23 16:02:02;;;;;;;13.40;5.20;;;;;;;;;;4824595;29;20059;-80
2023/03/23 16:04:49;;;;;;;10.30;5.78;;;;;;;;;;4810987;29;20396;-79
2023/03/23 16:07:34;;;;;;;8.70;5.22;;;;;;;;;;4816748;29;20158;-79
2023/03/23 16:10:21;;;;;;;7.47;5.50;;;;;;;;;;4816548;29;20058;-80
2023/03/23 16:13:06;;;;;;;10.05;5.72;;;;;;;;;;4824509;29;20042;-80
2023/03/23 16:15:51;;;;;;;12.50;6.25;;;;;;;;;;4824138;29;20042;-78
2023/03/23 16:18:37;;;;;;;14.18;6.97;;;;;;;;;;4816593;29;20059;-80
2023/03/23 16:21:22;;;;;;;11.63;7.22;;;;;;;;;;4826387;29;20058;-80
2023/03/23 16:24:08;;;;;;;95.38;43.38;;;;;;;;;;4827424;29;20046;-80
2023/03/23 16:26:54;;;;;;;624.35;346.20;;;;;;;;;;4827842;29;20492;-79
2023/03/23 16:29:39;;;;;;;603.92;366.55;;;;;;;;;;4827574;29;20042;-80
2023/03/23 16:32:25;;;;;;;175.55;80.85;;;;;;;;;;4827893;29;20050;-80
2023/03/23 16:35:11;;;;;;;80.18;45.97;;;;;;;;;;4827363;29;20050;-82
2023/03/23 16:37:56;;;;;;;49.55;32.58;;;;;;;;;;4827142;29;20046;-79
2023/03/23 16:40:44;;;;;;;45.13;30.17;;;;;;;;;;4814444;29;20046;-79
2023/03/23 16:43:29;;;;;;;32.13;17.58;;;;;;;;;;4827330;29;20054;-80
2023/03/23 16:46:15;;;;;;;22.20;13.13;;;;;;;;;;4813769;29;20058;-80
2023/03/23 16:49:00;;;;;;;15.52;9.95;;;;;;;;;;4827850;29;20062;-80
2023/03/23 16:51:47;;;;;;;22.90;10.10;;;;;;;;;;4827035;29;20054;-80
2023/03/23 16:54:32;;;;;;;22.73;11.48;;;;;;;;;;4827241;29;20050;-80
2023/03/23 16:57:17;;;;;;;23.50;13.25;;;;;;;;;;4819387;29;20042;-78